sensor_id;sensor_type;location;lat;lon;timestamp;pressure;altitude;pressure_sealevel;temperature;humidity
3748;BME280;1889;50.058;8.688;2022-09-03T00:02:18;99886.98;;;20.16;38.72
3748;BME280;1889;50.058;8.688;2022-09-03T00:04:30;99881.81;;;20.13;38.92
3748;BME280;1889;50.058;8.688;2022-09-03T00:07:01;99877.41;;;20.12;38.99
3748;BME280;1889;50.058;8.688;2022-09-03T00:09:37;99872.07;;;20.12;38.99
3748;BME280;1889;50.058;8.688;2022-09-03T00:12:12;99871.42;;;20.09;39.13
3748;BME280;1889;50.058;8.688;2022-09-03T00:14:56;99875.81;;;20.10;39.03
3748;BME280;1889;50.058;8.688;2022-09-03T00:17:38;99873.70;;;20.08;39.00
3748;BME280;1889;50.058;8.688;2022-09-03T00:22:49;99866.54;;;20.01;39.13
3748;BME280;1889;50.058;8.688;2022-09-03T00:25:20;99873.78;;;19.99;39.24
3748;BME280;1889;50.058;8.688;2022-09-03T00:27:52;99872.14;;;19.97;39.32
3748;BME280;1889;50.058;8.688;2022-09-03T00:30:22;99874.90;;;19.95;39.29
3748;BME280;1889;50.058;8.688;2022-09-03T00:33:10;99870.42;;;19.96;39.40
3748;BME280;1889;50.058;8.688;2022-09-03T00:35:54;99866.31;;;19.90;39.35
3748;BME280;1889;50.058;8.688;2022-09-03T00:38:23;99868.04;;;19.91;39.35
3748;BME280;1889;50.058;8.688;2022-09-03T00:41:24;99866.96;;;19.87;39.50
3748;BME280;1889;50.058;8.688;2022-09-03T00:55:24;99865.98;;;19.73;39.81
3748;BME280;1889;50.058;8.688;2022-09-03T01:00:33;99861.25;;;19.56;40.31
3748;BME280;1889;50.058;8.688;2022-09-03T01:03:14;99856.36;;;19.32;40.92
3748;BME280;1889;50.058;8.688;2022-09-03T01:05:56;99856.36;;;19.32;40.92
3748;BME280;1889;50.058;8.688;2022-09-03T01:11:10;99864.57;;;19.29;41.00
3748;BME280;1889;50.058;8.688;2022-09-03T01:13:57;99867.52;;;19.32;40.86
3748;BME280;1889;50.058;8.688;2022-09-03T01:16:39;99865.79;;;19.31;41.08
3748;BME280;1889;50.058;8.688;2022-09-03T01:22:30;99856.89;;;19.23;41.22
3748;BME280;1889;50.058;8.688;2022-09-03T01:30:57;99874.72;;;19.07;41.79
3748;BME280;1889;50.058;8.688;2022-09-03T01:36:19;99863.38;;;19.03;41.82
3748;BME280;1889;50.058;8.688;2022-09-03T01:38:52;99867.23;;;18.98;41.85
3748;BME280;1889;50.058;8.688;2022-09-03T01:41:45;99869.97;;;19.05;41.73
3748;BME280;1889;50.058;8.688;2022-09-03T01:44:54;99869.74;;;19.01;41.87
3748;BME280;1889;50.058;8.688;2022-09-03T01:53:00;99860.53;;;18.91;42.66
3748;BME280;1889;50.058;8.688;2022-09-03T01:58:43;99850.95;;;18.55;43.32
3748;BME280;1889;50.058;8.688;2022-09-03T02:01:15;99867.81;;;18.80;42.68
3748;BME280;1889;50.058;8.688;2022-09-03T02:03:45;99867.81;;;18.80;42.68
3748;BME280;1889;50.058;8.688;2022-09-03T02:06:15;99868.29;;;18.95;42.77
3748;BME280;1889;50.058;8.688;2022-09-03T02:08:47;99866.13;;;19.02;42.46
3748;BME280;1889;50.058;8.688;2022-09-03T02:11:16;99866.13;;;19.02;42.46
3748;BME280;1889;50.058;8.688;2022-09-03T02:13:53;99866.64;;;19.09;42.81
3748;BME280;1889;50.058;8.688;2022-09-03T02:16:28;99869.53;;;19.13;42.55
3748;BME280;1889;50.058;8.688;2022-09-03T02:19:00;99867.73;;;19.13;42.54
3748;BME280;1889;50.058;8.688;2022-09-03T02:21:35;99876.28;;;19.11;42.54
3748;BME280;1889;50.058;8.688;2022-09-03T02:24:07;99866.20;;;19.16;42.27
3748;BME280;1889;50.058;8.688;2022-09-03T02:26:37;99859.84;;;19.19;42.85
3748;BME280;1889;50.058;8.688;2022-09-03T02:29:06;99859.84;;;19.19;42.85
3748;BME280;1889;50.058;8.688;2022-09-03T02:31:36;99864.90;;;19.23;42.45
3748;BME280;1889;50.058;8.688;2022-09-03T02:34:07;99870.07;;;19.26;42.37
3748;BME280;1889;50.058;8.688;2022-09-03T02:36:39;99873.38;;;19.23;42.55
3748;BME280;1889;50.058;8.688;2022-09-03T02:39:09;99868.52;;;19.22;42.44
3748;BME280;1889;50.058;8.688;2022-09-03T02:41:38;99876.35;;;19.25;42.41
3748;BME280;1889;50.058;8.688;2022-09-03T02:44:25;99873.41;;;19.30;42.52
3748;BME280;1889;50.058;8.688;2022-09-03T02:46:59;99872.58;;;19.29;42.45
3748;BME280;1889;50.058;8.688;2022-09-03T02:49:29;99874.73;;;19.30;42.54
3748;BME280;1889;50.058;8.688;2022-09-03T02:52:01;99879.10;;;19.24;42.94
3748;BME280;1889;50.058;8.688;2022-09-03T02:54:33;99879.02;;;19.25;42.83
3748;BME280;1889;50.058;8.688;2022-09-03T02:57:07;99878.86;;;19.28;42.89
3748;BME280;1889;50.058;8.688;2022-09-03T02:59:36;99879.20;;;19.06;43.25
3748;BME280;1889;50.058;8.688;2022-09-03T03:02:07;99874.05;;;19.03;43.35
3748;BME280;1889;50.058;8.688;2022-09-03T03:04:36;99876.92;;;18.92;43.74
3748;BME280;1889;50.058;8.688;2022-09-03T03:07:06;99876.84;;;18.93;43.87
3748;BME280;1889;50.058;8.688;2022-09-03T03:09:35;99876.14;;;19.05;43.51
3748;BME280;1889;50.058;8.688;2022-09-03T03:12:05;99871.08;;;18.85;44.04
3748;BME280;1889;50.058;8.688;2022-09-03T03:14:35;99868.48;;;18.84;44.21
3748;BME280;1889;50.058;8.688;2022-09-03T03:17:04;99866.72;;;18.91;44.08
3748;BME280;1889;50.058;8.688;2022-09-03T03:19:33;99868.48;;;18.99;43.87
3748;BME280;1889;50.058;8.688;2022-09-03T03:22:03;99868.48;;;18.99;43.87
3748;BME280;1889;50.058;8.688;2022-09-03T03:24:32;99864.25;;;19.04;43.96
3748;BME280;1889;50.058;8.688;2022-09-03T03:27:01;99861.89;;;19.14;43.59
3748;BME280;1889;50.058;8.688;2022-09-03T03:29:32;99857.09;;;19.20;43.63
3748;BME280;1889;50.058;8.688;2022-09-03T03:32:02;99854.72;;;19.30;43.45
3748;BME280;1889;50.058;8.688;2022-09-03T03:34:31;99854.72;;;19.30;43.45
3748;BME280;1889;50.058;8.688;2022-09-03T03:37:01;99857.48;;;19.21;43.81
3748;BME280;1889;50.058;8.688;2022-09-03T03:39:30;99859.39;;;19.26;43.68
3748;BME280;1889;50.058;8.688;2022-09-03T03:41:59;99862.73;;;19.30;43.55
3748;BME280;1889;50.058;8.688;2022-09-03T03:44:28;99856.81;;;19.25;43.67
3748;BME280;1889;50.058;8.688;2022-09-03T03:46:57;99859.23;;;19.29;43.65
3748;BME280;1889;50.058;8.688;2022-09-03T03:49:27;99859.98;;;19.31;43.85
3748;BME280;1889;50.058;8.688;2022-09-03T03:51:56;99859.06;;;19.39;43.44
3748;BME280;1889;50.058;8.688;2022-09-03T03:54:25;99853.33;;;19.38;43.47
3748;BME280;1889;50.058;8.688;2022-09-03T03:56:55;99849.72;;;19.39;43.45
3748;BME280;1889;50.058;8.688;2022-09-03T03:59:25;99857.14;;;19.50;43.20
3748;BME280;1889;50.058;8.688;2022-09-03T04:01:54;99853.05;;;19.52;43.16
3748;BME280;1889;50.058;8.688;2022-09-03T04:04:24;99848.97;;;19.53;43.12
3748;BME280;1889;50.058;8.688;2022-09-03T04:06:53;99855.16;;;19.54;43.01
3748;BME280;1889;50.058;8.688;2022-09-03T04:09:22;99851.66;;;19.60;42.94
3748;BME280;1889;50.058;8.688;2022-09-03T04:11:52;99848.90;;;19.62;42.92
3748;BME280;1889;50.058;8.688;2022-09-03T04:14:21;99843.44;;;19.63;42.97
3748;BME280;1889;50.058;8.688;2022-09-03T04:16:50;99843.44;;;19.63;42.97
3748;BME280;1889;50.058;8.688;2022-09-03T04:19:20;99838.96;;;19.64;42.84
3748;BME280;1889;50.058;8.688;2022-09-03T04:21:49;99845.16;;;19.64;42.94
3748;BME280;1889;50.058;8.688;2022-09-03T04:24:18;99840.77;;;19.63;43.15
3748;BME280;1889;50.058;8.688;2022-09-03T04:26:47;99847.06;;;19.62;43.08
3748;BME280;1889;50.058;8.688;2022-09-03T04:29:19;99850.23;;;19.62;42.83
3748;BME280;1889;50.058;8.688;2022-09-03T04:31:49;99850.23;;;19.62;42.83
3748;BME280;1889;50.058;8.688;2022-09-03T04:34:22;99852.91;;;19.62;43.02
3748;BME280;1889;50.058;8.688;2022-09-03T04:36:52;99854.59;;;19.63;43.01
3748;BME280;1889;50.058;8.688;2022-09-03T04:39:21;99854.51;;;19.64;42.96
3748;BME280;1889;50.058;8.688;2022-09-03T04:41:50;99854.51;;;19.64;42.96
3748;BME280;1889;50.058;8.688;2022-09-03T04:44:20;99853.87;;;19.68;42.90
3748;BME280;1889;50.058;8.688;2022-09-03T04:46:49;99853.87;;;19.68;42.90
3748;BME280;1889;50.058;8.688;2022-09-03T04:49:20;99850.32;;;19.60;43.23
3748;BME280;1889;50.058;8.688;2022-09-03T04:51:50;99848.22;;;19.65;43.25
3748;BME280;1889;50.058;8.688;2022-09-03T04:54:19;99844.89;;;19.62;43.15
3748;BME280;1889;50.058;8.688;2022-09-03T04:56:48;99844.89;;;19.62;43.15
3748;BME280;1889;50.058;8.688;2022-09-03T04:59:18;99854.25;;;19.69;43.11
3748;BME280;1889;50.058;8.688;2022-09-03T05:01:47;99852.80;;;19.70;43.07
3748;BME280;1889;50.058;8.688;2022-09-03T05:04:16;99852.53;;;19.68;43.16
3748;BME280;1889;50.058;8.688;2022-09-03T05:06:46;99852.53;;;19.68;43.16
3748;BME280;1889;50.058;8.688;2022-09-03T05:09:16;99850.05;;;19.72;43.04
3748;BME280;1889;50.058;8.688;2022-09-03T05:11:45;99850.05;;;19.72;43.04
3748;BME280;1889;50.058;8.688;2022-09-03T05:14:14;99849.77;;;19.69;43.09
3748;BME280;1889;50.058;8.688;2022-09-03T05:16:45;99853.09;;;19.66;43.17
3748;BME280;1889;50.058;8.688;2022-09-03T05:19:14;99853.09;;;19.66;43.17
3748;BME280;1889;50.058;8.688;2022-09-03T05:21:44;99852.53;;;19.68;43.12
3748;BME280;1889;50.058;8.688;2022-09-03T05:24:14;99858.52;;;19.64;43.40
3748;BME280;1889;50.058;8.688;2022-09-03T05:26:43;99858.52;;;19.64;43.40
3748;BME280;1889;50.058;8.688;2022-09-03T05:29:12;99860.53;;;19.61;43.43
3748;BME280;1889;50.058;8.688;2022-09-03T05:31:42;99862.05;;;19.65;43.41
3748;BME280;1889;50.058;8.688;2022-09-03T05:34:12;99864.39;;;19.55;43.81
3748;BME280;1889;50.058;8.688;2022-09-03T05:36:41;99874.15;;;19.63;43.93
3748;BME280;1889;50.058;8.688;2022-09-03T05:39:10;99869.80;;;19.69;43.75
3748;BME280;1889;50.058;8.688;2022-09-03T05:41:40;99873.70;;;19.71;43.63
3748;BME280;1889;50.058;8.688;2022-09-03T05:44:09;99877.62;;;19.72;43.84
3748;BME280;1889;50.058;8.688;2022-09-03T05:46:39;99877.46;;;19.83;43.74
3748;BME280;1889;50.058;8.688;2022-09-03T05:49:08;99876.60;;;19.82;43.88
3748;BME280;1889;50.058;8.688;2022-09-03T05:51:38;99879.66;;;19.83;43.78
3748;BME280;1889;50.058;8.688;2022-09-03T05:54:09;99884.04;;;19.77;44.04
3748;BME280;1889;50.058;8.688;2022-09-03T05:56:39;99884.04;;;19.77;44.04
3748;BME280;1889;50.058;8.688;2022-09-03T05:59:09;99877.55;;;19.81;44.38
3748;BME280;1889;50.058;8.688;2022-09-03T06:01:43;99885.86;;;19.84;44.15
3748;BME280;1889;50.058;8.688;2022-09-03T06:04:14;99885.86;;;19.84;44.15
3748;BME280;1889;50.058;8.688;2022-09-03T06:06:45;99891.68;;;19.83;44.35
3748;BME280;1889;50.058;8.688;2022-09-03T06:09:20;99892.93;;;19.85;44.28
3748;BME280;1889;50.058;8.688;2022-09-03T06:11:50;99892.93;;;19.85;44.28
3748;BME280;1889;50.058;8.688;2022-09-03T06:14:21;99902.27;;;19.77;44.91
3748;BME280;1889;50.058;8.688;2022-09-03T06:16:50;99902.82;;;19.75;44.85
3748;BME280;1889;50.058;8.688;2022-09-03T06:19:20;99903.66;;;19.69;45.18
3748;BME280;1889;50.058;8.688;2022-09-03T06:21:49;99903.66;;;19.69;45.18
3748;BME280;1889;50.058;8.688;2022-09-03T06:24:20;99902.34;;;19.76;44.94
3748;BME280;1889;50.058;8.688;2022-09-03T06:26:54;99902.82;;;19.75;45.33
3748;BME280;1889;50.058;8.688;2022-09-03T06:29:23;99902.82;;;19.75;45.33
3748;BME280;1889;50.058;8.688;2022-09-03T06:31:52;99907.88;;;19.80;45.26
3748;BME280;1889;50.058;8.688;2022-09-03T06:34:22;99905.41;;;19.77;45.86
3748;BME280;1889;50.058;8.688;2022-09-03T06:36:53;99913.22;;;19.80;46.16
3748;BME280;1889;50.058;8.688;2022-09-03T06:39:23;99902.73;;;19.77;45.99
3748;BME280;1889;50.058;8.688;2022-09-03T06:41:54;99908.02;;;19.86;45.81
3748;BME280;1889;50.058;8.688;2022-09-03T06:44:23;99903.24;;;19.91;45.77
3748;BME280;1889;50.058;8.688;2022-09-03T06:46:52;99905.83;;;19.92;45.68
3748;BME280;1889;50.058;8.688;2022-09-03T06:49:21;99909.84;;;19.99;45.52
3748;BME280;1889;50.058;8.688;2022-09-03T06:51:52;99906.70;;;20.00;45.39
3748;BME280;1889;50.058;8.688;2022-09-03T06:54:21;99908.53;;;20.06;45.71
3748;BME280;1889;50.058;8.688;2022-09-03T06:56:52;99914.65;;;20.08;45.76
3748;BME280;1889;50.058;8.688;2022-09-03T06:59:21;99920.45;;;20.01;46.11
3748;BME280;1889;50.058;8.688;2022-09-03T07:01:50;99920.64;;;20.05;46.37
3748;BME280;1889;50.058;8.688;2022-09-03T07:04:19;99917.78;;;20.01;46.77
3748;BME280;1889;50.058;8.688;2022-09-03T07:06:50;99917.39;;;20.00;47.01
3748;BME280;1889;50.058;8.688;2022-09-03T07:09:20;99918.51;;;19.96;47.56
3748;BME280;1889;50.058;8.688;2022-09-03T07:11:49;99929.18;;;19.89;47.92
3748;BME280;1889;50.058;8.688;2022-09-03T07:14:20;99931.46;;;19.88;48.33
3748;BME280;1889;50.058;8.688;2022-09-03T07:16:50;99925.09;;;19.90;48.21
3748;BME280;1889;50.058;8.688;2022-09-03T07:19:19;99939.22;;;19.92;48.62
3748;BME280;1889;50.058;8.688;2022-09-03T07:21:50;99933.27;;;19.87;49.48
3748;BME280;1889;50.058;8.688;2022-09-03T07:24:19;99932.30;;;19.81;49.41
3748;BME280;1889;50.058;8.688;2022-09-03T07:26:49;99933.00;;;19.85;49.53
3748;BME280;1889;50.058;8.688;2022-09-03T07:29:18;99934.20;;;19.79;50.09
3748;BME280;1889;50.058;8.688;2022-09-03T07:31:49;99938.53;;;19.89;49.71
3748;BME280;1889;50.058;8.688;2022-09-03T07:34:19;99938.75;;;19.93;49.80
3748;BME280;1889;50.058;8.688;2022-09-03T07:36:50;99932.50;;;19.78;50.38
3748;BME280;1889;50.058;8.688;2022-09-03T07:39:19;99936.80;;;19.88;50.60
3748;BME280;1889;50.058;8.688;2022-09-03T07:41:49;99941.34;;;19.78;50.41
3748;BME280;1889;50.058;8.688;2022-09-03T07:44:18;99941.85;;;19.78;50.74
3748;BME280;1889;50.058;8.688;2022-09-03T07:46:48;99940.41;;;19.79;50.78
3748;BME280;1889;50.058;8.688;2022-09-03T07:49:18;99936.12;;;19.77;50.76
3748;BME280;1889;50.058;8.688;2022-09-03T07:51:49;99945.36;;;19.78;50.58
3748;BME280;1889;50.058;8.688;2022-09-03T07:54:20;99940.21;;;19.75;51.29
3748;BME280;1889;50.058;8.688;2022-09-03T07:56:50;99939.48;;;19.65;51.48
3748;BME280;1889;50.058;8.688;2022-09-03T07:59:20;99953.73;;;19.72;51.26
3748;BME280;1889;50.058;8.688;2022-09-03T08:01:50;99945.64;;;19.74;51.09
3748;BME280;1889;50.058;8.688;2022-09-03T08:04:20;99951.76;;;19.76;50.79
3748;BME280;1889;50.058;8.688;2022-09-03T08:06:49;99951.76;;;19.76;50.79
3748;BME280;1889;50.058;8.688;2022-09-03T08:09:20;99948.41;;;19.79;51.12
3748;BME280;1889;50.058;8.688;2022-09-03T08:11:50;99947.97;;;19.64;51.92
3748;BME280;1889;50.058;8.688;2022-09-03T08:14:19;99947.97;;;19.64;51.92
3748;BME280;1889;50.058;8.688;2022-09-03T08:16:49;99952.41;;;19.41;53.08
3748;BME280;1889;50.058;8.688;2022-09-03T08:19:18;99956.25;;;19.44;52.94
3748;BME280;1889;50.058;8.688;2022-09-03T08:21:48;99952.23;;;19.53;53.77
3748;BME280;1889;50.058;8.688;2022-09-03T08:24:17;99952.23;;;19.53;53.77
3748;BME280;1889;50.058;8.688;2022-09-03T08:26:48;99958.52;;;19.52;54.36
3748;BME280;1889;50.058;8.688;2022-09-03T08:29:18;99957.86;;;19.47;54.82
3748;BME280;1889;50.058;8.688;2022-09-03T08:31:48;99957.86;;;19.47;54.82
3748;BME280;1889;50.058;8.688;2022-09-03T08:34:17;99960.30;;;19.35;56.10
3748;BME280;1889;50.058;8.688;2022-09-03T08:36:47;99957.63;;;19.35;56.51
3748;BME280;1889;50.058;8.688;2022-09-03T08:39:17;99955.16;;;19.39;56.75
3748;BME280;1889;50.058;8.688;2022-09-03T08:42:03;99948.71;;;19.43;57.39
3748;BME280;1889;50.058;8.688;2022-09-03T08:50:03;99955.92;;;19.50;59.33
3748;BME280;1889;50.058;8.688;2022-09-03T08:52:38;99955.92;;;19.50;59.33
3748;BME280;1889;50.058;8.688;2022-09-03T08:57:53;99974.23;;;19.72;58.27
3748;BME280;1889;50.058;8.688;2022-09-03T09:00:21;99973.23;;;19.81;58.15
3748;BME280;1889;50.058;8.688;2022-09-03T09:02:59;99962.80;;;19.93;58.09
3748;BME280;1889;50.058;8.688;2022-09-03T09:05:46;99959.47;;;20.03;58.09
3748;BME280;1889;50.058;8.688;2022-09-03T09:08:33;99959.47;;;20.03;58.09
3748;BME280;1889;50.058;8.688;2022-09-03T09:14:03;99971.72;;;20.07;57.55
3748;BME280;1889;50.058;8.688;2022-09-03T09:25:11;99986.28;;;20.25;57.48
3748;BME280;1889;50.058;8.688;2022-09-03T09:30:30;99986.63;;;20.34;56.66
3748;BME280;1889;50.058;8.688;2022-09-03T09:33:00;99989.77;;;20.34;56.53
3748;BME280;1889;50.058;8.688;2022-09-03T09:35:29;99998.92;;;20.37;56.96
3748;BME280;1889;50.058;8.688;2022-09-03T09:37:58;99992.08;;;20.47;56.76
3748;BME280;1889;50.058;8.688;2022-09-03T09:40:30;99987.21;;;20.53;56.40
3748;BME280;1889;50.058;8.688;2022-09-03T09:43:04;99994.29;;;20.62;56.63
3748;BME280;1889;50.058;8.688;2022-09-03T09:45:34;99991.34;;;20.59;57.21
3748;BME280;1889;50.058;8.688;2022-09-03T09:48:14;99988.94;;;20.62;56.95
3748;BME280;1889;50.058;8.688;2022-09-03T09:50:39;99982.85;;;20.67;56.85
3748;BME280;1889;50.058;8.688;2022-09-03T09:53:09;99986.27;;;20.76;56.29
3748;BME280;1889;50.058;8.688;2022-09-03T09:55:51;99979.41;;;20.79;56.26
3748;BME280;1889;50.058;8.688;2022-09-03T09:58:26;99983.03;;;20.64;58.16
3748;BME280;1889;50.058;8.688;2022-09-03T10:01:11;99977.98;;;20.73;57.42
3748;BME280;1889;50.058;8.688;2022-09-03T10:03:50;99987.91;;;20.78;57.13
3748;BME280;1889;50.058;8.688;2022-09-03T10:06:30;99988.12;;;20.75;56.74
3748;BME280;1889;50.058;8.688;2022-09-03T10:09:20;99986.78;;;20.75;57.10
3748;BME280;1889;50.058;8.688;2022-09-03T10:12:00;99986.78;;;20.75;57.10
3748;BME280;1889;50.058;8.688;2022-09-03T10:14:31;99984.45;;;20.76;56.58
3748;BME280;1889;50.058;8.688;2022-09-03T10:17:08;99989.80;;;20.55;59.00
3748;BME280;1889;50.058;8.688;2022-09-03T10:20:04;99988.55;;;20.53;59.02
3748;BME280;1889;50.058;8.688;2022-09-03T10:23:00;99981.20;;;20.43;58.73
3748;BME280;1889;50.058;8.688;2022-09-03T10:25:36;99990.88;;;20.67;58.50
3748;BME280;1889;50.058;8.688;2022-09-03T10:28:08;99991.73;;;20.88;58.12
3748;BME280;1889;50.058;8.688;2022-09-03T10:30:47;99986.75;;;21.11;57.70
3748;BME280;1889;50.058;8.688;2022-09-03T10:33:18;99977.19;;;21.35;56.87
3748;BME280;1889;50.058;8.688;2022-09-03T10:35:56;99973.52;;;21.50;56.60
3748;BME280;1889;50.058;8.688;2022-09-03T10:38:28;99977.27;;;21.48;56.32
3748;BME280;1889;50.058;8.688;2022-09-03T10:52:24;99967.59;;;21.79;55.15
3748;BME280;1889;50.058;8.688;2022-09-03T10:55:11;99971.07;;;21.94;55.00
3748;BME280;1889;50.058;8.688;2022-09-03T10:57:47;99969.34;;;22.00;54.98
3748;BME280;1889;50.058;8.688;2022-09-03T11:00:16;99970.16;;;22.07;54.13
3748;BME280;1889;50.058;8.688;2022-09-03T11:05:38;99973.47;;;22.18;53.98
3748;BME280;1889;50.058;8.688;2022-09-03T11:08:13;99970.74;;;22.25;54.06
3748;BME280;1889;50.058;8.688;2022-09-03T11:11:03;99969.25;;;22.21;53.98
3748;BME280;1889;50.058;8.688;2022-09-03T11:13:23;99964.70;;;22.29;54.02
3748;BME280;1889;50.058;8.688;2022-09-03T11:16:03;99965.05;;;22.30;54.31
3748;BME280;1889;50.058;8.688;2022-09-03T11:18:50;99964.95;;;22.31;54.44
3748;BME280;1889;50.058;8.688;2022-09-03T11:21:23;99958.81;;;22.36;53.78
3748;BME280;1889;50.058;8.688;2022-09-03T11:24:09;99965.44;;;22.31;53.55
3748;BME280;1889;50.058;8.688;2022-09-03T11:26:36;99961.79;;;22.32;53.58
3748;BME280;1889;50.058;8.688;2022-09-03T11:29:29;99959.72;;;22.42;53.89
3748;BME280;1889;50.058;8.688;2022-09-03T11:31:59;99940.78;;;22.51;53.75
3748;BME280;1889;50.058;8.688;2022-09-03T11:34:31;99944.15;;;22.73;54.02
3748;BME280;1889;50.058;8.688;2022-09-03T11:39:56;99943.53;;;22.82;53.44
3748;BME280;1889;50.058;8.688;2022-09-03T11:42:28;99939.92;;;23.01;53.72
3748;BME280;1889;50.058;8.688;2022-09-03T11:47:58;99939.56;;;23.18;52.64
3748;BME280;1889;50.058;8.688;2022-09-03T11:50:29;99936.63;;;23.21;52.98
3748;BME280;1889;50.058;8.688;2022-09-03T11:53:10;99937.17;;;23.27;52.02
3748;BME280;1889;50.058;8.688;2022-09-03T11:55:51;99938.48;;;23.45;52.01
3748;BME280;1889;50.058;8.688;2022-09-03T11:58:38;99932.43;;;23.67;51.60
3748;BME280;1889;50.058;8.688;2022-09-03T12:01:11;99929.45;;;23.88;51.10
3748;BME280;1889;50.058;8.688;2022-09-03T12:09:42;99915.21;;;24.04;49.78
3748;BME280;1889;50.058;8.688;2022-09-03T12:18:06;99916.42;;;24.35;49.51
3748;BME280;1889;50.058;8.688;2022-09-03T12:23:32;99903.49;;;24.62;49.30
3748;BME280;1889;50.058;8.688;2022-09-03T12:26:12;99898.22;;;24.61;48.72
3748;BME280;1889;50.058;8.688;2022-09-03T12:28:55;99907.52;;;24.68;48.75
3748;BME280;1889;50.058;8.688;2022-09-03T12:31:42;99900.66;;;24.75;48.29
3748;BME280;1889;50.058;8.688;2022-09-03T12:34:02;99898.72;;;24.77;46.62
3748;BME280;1889;50.058;8.688;2022-09-03T12:36:43;99898.72;;;24.77;46.62
3748;BME280;1889;50.058;8.688;2022-09-03T12:39:19;99900.78;;;24.73;47.58
3748;BME280;1889;50.058;8.688;2022-09-03T12:42:04;99895.77;;;24.86;47.12
3748;BME280;1889;50.058;8.688;2022-09-03T12:44:39;99893.19;;;24.90;46.67
3748;BME280;1889;50.058;8.688;2022-09-03T12:47:11;99899.70;;;24.98;46.35
3748;BME280;1889;50.058;8.688;2022-09-03T12:49:42;99892.13;;;25.03;46.34
3748;BME280;1889;50.058;8.688;2022-09-03T12:52:27;99894.53;;;24.90;45.85
3748;BME280;1889;50.058;8.688;2022-09-03T12:57:56;99885.86;;;24.97;46.13
3748;BME280;1889;50.058;8.688;2022-09-03T13:00:20;99891.27;;;25.03;45.52
3748;BME280;1889;50.058;8.688;2022-09-03T13:05:53;99891.84;;;24.90;46.42
3748;BME280;1889;50.058;8.688;2022-09-03T13:08:25;99883.79;;;24.79;46.15
3748;BME280;1889;50.058;8.688;2022-09-03T13:11:00;99898.58;;;24.51;46.81
3748;BME280;1889;50.058;8.688;2022-09-03T13:13:34;99894.91;;;24.57;46.60
3748;BME280;1889;50.058;8.688;2022-09-03T13:19:25;99897.58;;;24.41;46.57
3748;BME280;1889;50.058;8.688;2022-09-03T13:30:13;99892.95;;;24.59;46.49
3748;BME280;1889;50.058;8.688;2022-09-03T13:33:00;99899.20;;;24.54;46.68
3748;BME280;1889;50.058;8.688;2022-09-03T13:35:38;99897.25;;;24.62;46.50
3748;BME280;1889;50.058;8.688;2022-09-03T13:38:34;99890.65;;;24.71;46.38
3748;BME280;1889;50.058;8.688;2022-09-03T13:43:36;99891.02;;;24.73;46.31
3748;BME280;1889;50.058;8.688;2022-09-03T13:46:27;99895.88;;;24.73;46.44
3748;BME280;1889;50.058;8.688;2022-09-03T13:49:08;99898.59;;;24.79;46.29
3748;BME280;1889;50.058;8.688;2022-09-03T13:51:55;99897.86;;;24.88;46.06
3748;BME280;1889;50.058;8.688;2022-09-03T13:54:33;99897.62;;;25.02;46.17
3748;BME280;1889;50.058;8.688;2022-09-03T13:57:04;99902.00;;;25.14;46.13
3748;BME280;1889;50.058;8.688;2022-09-03T13:59:51;99908.36;;;25.24;45.82
3748;BME280;1889;50.058;8.688;2022-09-03T14:08:19;99891.27;;;24.64;46.35
3748;BME280;1889;50.058;8.688;2022-09-03T14:10:54;99884.40;;;24.99;46.31
3748;BME280;1889;50.058;8.688;2022-09-03T14:19:37;99883.91;;;25.11;45.42
3748;BME280;1889;50.058;8.688;2022-09-03T14:22:33;99884.49;;;25.14;45.39
3748;BME280;1889;50.058;8.688;2022-09-03T14:25:20;99886.23;;;24.98;45.86
3748;BME280;1889;50.058;8.688;2022-09-03T14:27:46;99886.84;;;25.07;45.50
3748;BME280;1889;50.058;8.688;2022-09-03T14:33:04;99876.06;;;24.85;46.36
3748;BME280;1889;50.058;8.688;2022-09-03T14:38:28;99881.46;;;25.13;45.63
3748;BME280;1889;50.058;8.688;2022-09-03T14:41:06;99884.89;;;24.98;45.71
3748;BME280;1889;50.058;8.688;2022-09-03T14:46:49;99883.77;;;25.06;46.00
3748;BME280;1889;50.058;8.688;2022-09-03T14:57:59;99887.73;;;24.97;46.12
3748;BME280;1889;50.058;8.688;2022-09-03T15:06:31;99887.56;;;24.65;47.20
3748;BME280;1889;50.058;8.688;2022-09-03T15:09:10;99879.02;;;24.88;46.99
3748;BME280;1889;50.058;8.688;2022-09-03T15:11:56;99881.09;;;25.12;46.54
3748;BME280;1889;50.058;8.688;2022-09-03T15:14:28;99885.44;;;25.35;46.22
3748;BME280;1889;50.058;8.688;2022-09-03T15:17:13;99880.07;;;25.24;46.20
3748;BME280;1889;50.058;8.688;2022-09-03T15:19:44;99886.30;;;25.30;45.99
3748;BME280;1889;50.058;8.688;2022-09-03T15:25:37;99878.77;;;25.02;46.63
3748;BME280;1889;50.058;8.688;2022-09-03T15:33:31;99870.45;;;25.05;46.68
3748;BME280;1889;50.058;8.688;2022-09-03T15:36:09;99870.45;;;24.88;47.17
3748;BME280;1889;50.058;8.688;2022-09-03T15:38:47;99876.92;;;24.86;47.30
3748;BME280;1889;50.058;8.688;2022-09-03T15:44:13;99874.36;;;24.79;47.62
3748;BME280;1889;50.058;8.688;2022-09-03T15:46:57;99867.11;;;24.90;47.36
3748;BME280;1889;50.058;8.688;2022-09-03T15:49:31;99873.00;;;25.06;47.17
3748;BME280;1889;50.058;8.688;2022-09-03T15:54:55;99880.73;;;24.78;47.53
3748;BME280;1889;50.058;8.688;2022-09-03T15:57:21;99886.46;;;24.73;47.66
3748;BME280;1889;50.058;8.688;2022-09-03T16:08:18;99891.45;;;24.33;49.02
3748;BME280;1889;50.058;8.688;2022-09-03T16:11:04;99894.41;;;24.36;48.82
3748;BME280;1889;50.058;8.688;2022-09-03T16:13:54;99898.33;;;24.43;48.63
3748;BME280;1889;50.058;8.688;2022-09-03T16:16:25;99894.26;;;24.20;49.25
3748;BME280;1889;50.058;8.688;2022-09-03T16:19:35;99894.37;;;24.24;49.08
3748;BME280;1889;50.058;8.688;2022-09-03T16:21:45;99886.33;;;24.36;48.81
3748;BME280;1889;50.058;8.688;2022-09-03T16:24:23;99889.02;;;24.41;48.72
3748;BME280;1889;50.058;8.688;2022-09-03T16:27:02;99884.98;;;24.30;49.25
3748;BME280;1889;50.058;8.688;2022-09-03T16:29:30;99883.76;;;24.23;49.79
3748;BME280;1889;50.058;8.688;2022-09-03T16:32:05;99881.21;;;24.38;49.43
3748;BME280;1889;50.058;8.688;2022-09-03T16:43:05;99891.59;;;24.37;49.05
3748;BME280;1889;50.058;8.688;2022-09-03T16:45:38;99890.74;;;24.31;49.31
3748;BME280;1889;50.058;8.688;2022-09-03T16:48:40;99894.37;;;24.24;49.81
3748;BME280;1889;50.058;8.688;2022-09-03T16:59:30;99906.55;;;24.06;50.50
3748;BME280;1889;50.058;8.688;2022-09-03T17:16:28;99923.61;;;23.94;50.77
3748;BME280;1889;50.058;8.688;2022-09-03T17:24:19;99930.00;;;23.33;52.08
3748;BME280;1889;50.058;8.688;2022-09-03T17:35:15;99927.53;;;22.80;52.85
3748;BME280;1889;50.058;8.688;2022-09-03T17:40:36;99925.70;;;23.12;51.99